createdAt,value
2019-01-21T00:02:32.606Z,-4.40
2019-01-21T00:11:45.502Z,-4.40
2019-01-21T00:27:06.610Z,-4.50
2019-01-21T00:32:57.485Z,-4.60
2019-01-21T00:39:43.072Z,-4.60
2019-01-21T00:43:01.106Z,-4.60
2019-01-21T00:46:01.062Z,-4.60
2019-01-21T00:49:07.907Z,-4.70
2019-01-21T00:58:29.850Z,-4.70
2019-01-21T01:04:16.454Z,-4.70
2019-01-21T01:07:17.907Z,-4.70
2019-01-21T01:20:02.228Z,-4.80
2019-01-21T01:23:03.763Z,-4.80
2019-01-21T01:32:46.857Z,-4.90
2019-01-21T01:38:31.066Z,-4.90
2019-01-21T01:44:15.577Z,-4.90
2019-01-21T01:49:59.473Z,-5.10
2019-01-21T01:53:22.086Z,-5.00
2019-01-21T02:05:36.807Z,-5.00
2019-01-21T02:08:36.230Z,-5.00
2019-01-21T02:14:24.813Z,-5.00
2019-01-21T02:17:42.916Z,-5.10
2019-01-21T02:21:03.181Z,-5.20
2019-01-21T02:24:05.295Z,-5.10
2019-01-21T02:29:49.016Z,-5.00
2019-01-21T02:35:33.863Z,-5.00
2019-01-21T02:41:20.331Z,-4.90
2019-01-21T02:47:05.698Z,-5.00
2019-01-21T02:52:51.432Z,-5.00
2019-01-21T02:55:53.456Z,-5.10
2019-01-21T03:01:38.826Z,-5.10
2019-01-21T03:07:24.246Z,-5.10
2019-01-21T03:13:14.030Z,-5.20
2019-01-21T03:22:11.036Z,-5.20
2019-01-21T03:27:57.001Z,-5.20
2019-01-21T03:33:50.400Z,-5.30
2019-01-21T03:43:59.798Z,-5.30
2019-01-21T03:49:45.616Z,-5.30
2019-01-21T03:52:46.403Z,-5.20
2019-01-21T03:58:32.279Z,-5.30
2019-01-21T04:04:57.866Z,-5.30
2019-01-21T04:10:44.462Z,-5.30
2019-01-21T04:16:30.678Z,-5.40
2019-01-21T04:22:17.311Z,-5.50
2019-01-21T04:25:22.999Z,-5.40
2019-01-21T04:31:09.643Z,-5.40
2019-01-21T04:36:56.074Z,-5.40
2019-01-21T04:42:42.439Z,-5.40
2019-01-21T04:48:33.179Z,-5.40
2019-01-21T04:54:16.323Z,-5.40
2019-01-21T04:57:17.575Z,-5.40
2019-01-21T05:03:03.226Z,-5.40
2019-01-21T05:08:49.605Z,-5.40
2019-01-21T05:14:35.469Z,-5.30
2019-01-21T05:24:37.739Z,-5.40
2019-01-21T05:30:23.355Z,-5.30
2019-01-21T05:37:02.946Z,-5.20
2019-01-21T05:40:04.314Z,-5.20
2019-01-21T05:45:50.179Z,-5.10
2019-01-21T05:51:35.958Z,-5.00
2019-01-21T05:54:37.486Z,-5.00
2019-01-21T06:00:23.219Z,-5.00
2019-01-21T06:06:09.471Z,-4.80
2019-01-21T06:15:07.467Z,-4.60
2019-01-21T06:18:08.112Z,-4.70
2019-01-21T06:23:52.751Z,-4.70
2019-01-21T06:26:53.215Z,-4.70
2019-01-21T06:29:54.746Z,-4.70
2019-01-21T06:32:56.392Z,-4.70
2019-01-21T06:38:41.891Z,-4.80
2019-01-21T06:44:27.603Z,-4.80
2019-01-21T06:50:12.989Z,-4.80
2019-01-21T06:59:10.201Z,-4.90
2019-01-21T07:02:11.452Z,-4.80
2019-01-21T07:07:57.243Z,-4.90
2019-01-21T07:10:58.287Z,-4.80
2019-01-21T07:14:01.448Z,-4.90
2019-01-21T07:17:21.170Z,-4.90
2019-01-21T07:23:06.942Z,-4.90
2019-01-21T07:28:52.488Z,-4.90
2019-01-21T07:31:53.073Z,-4.80
2019-01-21T07:37:38.503Z,-4.90
2019-01-21T07:43:24.257Z,-4.80
2019-01-21T07:49:10.107Z,-4.80
2019-01-21T08:01:20.975Z,-4.60
2019-01-21T08:04:21.526Z,-4.60
2019-01-21T08:07:41.103Z,-4.50
2019-01-21T08:10:42.703Z,-4.50
2019-01-21T08:13:44.175Z,-4.40
2019-01-21T08:19:29.703Z,-4.20
2019-01-21T08:25:15.375Z,-4.00
2019-01-21T08:31:02.080Z,-3.90
2019-01-21T08:36:47.514Z,-3.70
2019-01-21T08:39:48.747Z,-3.70
2019-01-21T08:45:34.887Z,-3.50
2019-01-21T08:51:20.195Z,-3.40
2019-01-21T08:57:07.696Z,-3.20
2019-01-21T09:00:08.807Z,-3.10
2019-01-21T09:05:54.426Z,-2.90
2019-01-21T09:11:39.243Z,-2.80
2019-01-21T09:17:25.638Z,-2.70
2019-01-21T09:23:11.270Z,-2.50
2019-01-21T09:28:57.834Z,-2.40
2019-01-21T09:32:00.234Z,-2.30
2019-01-21T09:35:01.734Z,-2.20
2019-01-21T09:41:27.498Z,-2.10
2019-01-21T09:44:28.640Z,-2.00
2019-01-21T09:50:14.486Z,-2.00
2019-01-21T09:55:57.773Z,-1.80
2019-01-21T10:01:44.363Z,-1.70
2019-01-21T10:04:45.123Z,-1.60
2019-01-21T10:10:31.030Z,-1.40
2019-01-21T10:16:16.519Z,-1.30
2019-01-21T10:22:07.331Z,-1.30
2019-01-21T10:27:52.342Z,-1.30
2019-01-21T10:33:43.029Z,-1.10
2019-01-21T10:39:28.832Z,-1.00
2019-01-21T10:42:30.159Z,-0.90
2019-01-21T10:51:40.027Z,-0.80
2019-01-21T10:54:41.505Z,-0.80
2019-01-21T11:00:27.158Z,-0.70
2019-01-21T11:03:46.679Z,-0.60
2019-01-21T11:09:28.125Z,-0.60
2019-01-21T11:15:14.026Z,-0.30
2019-01-21T11:24:05.459Z,-0.30
2019-01-21T11:27:07.195Z,-0.20
2019-01-21T11:32:52.754Z,-0.10
2019-01-21T11:38:44.002Z,-0.10
2019-01-21T11:41:45.219Z,0.00
2019-01-21T11:45:34.049Z,0.00
2019-01-21T12:03:15.307Z,0.20
2019-01-21T12:12:10.542Z,0.40
2019-01-21T12:15:10.026Z,0.40
2019-01-21T12:20:54.431Z,0.50
2019-01-21T12:24:00.065Z,0.50
2019-01-21T12:29:44.892Z,0.50
2019-01-21T12:32:46.142Z,0.50
2019-01-21T12:35:47.076Z,0.60
2019-01-21T12:41:31.734Z,0.70
2019-01-21T12:47:16.366Z,0.80
2019-01-21T12:50:23.801Z,0.80
2019-01-21T12:56:03.976Z,0.90
2019-01-21T13:01:47.691Z,0.90
2019-01-21T13:04:48.764Z,1.30
2019-01-21T13:07:49.658Z,1.00
2019-01-21T13:13:34.273Z,1.00
2019-01-21T13:16:34.939Z,1.00
2019-01-21T13:19:35.973Z,1.10
2019-01-21T13:22:36.427Z,1.10
2019-01-21T13:28:20.253Z,1.20
2019-01-21T13:34:04.143Z,1.40
2019-01-21T13:37:05.321Z,1.40
2019-01-21T13:40:05.806Z,1.50
2019-01-21T13:43:06.754Z,1.60
2019-01-21T13:48:51.414Z,1.70
2019-01-21T13:54:35.958Z,1.80
2019-01-21T14:00:20.461Z,2.00
2019-01-21T14:06:05.132Z,2.20
2019-01-21T14:11:49.989Z,1.90
2019-01-21T14:14:50.716Z,1.90
2019-01-21T14:20:51.135Z,1.90
2019-01-21T14:26:35.983Z,1.80
2019-01-21T14:29:37.022Z,1.90
2019-01-21T14:32:37.826Z,1.80
2019-01-21T14:35:38.373Z,1.70
2019-01-21T14:38:39.159Z,1.70
2019-01-21T14:41:40.360Z,1.70
2019-01-21T14:47:25.369Z,1.60
2019-01-21T14:53:10.008Z,1.50
2019-01-21T14:56:10.773Z,1.50
2019-01-21T14:59:11.655Z,1.50
2019-01-21T15:02:12.306Z,1.40
2019-01-21T15:05:12.705Z,1.40
2019-01-21T15:08:12.487Z,1.30
2019-01-21T15:14:12.174Z,1.30
2019-01-21T15:17:12.778Z,1.20
2019-01-21T15:20:13.848Z,1.20
2019-01-21T15:23:14.654Z,1.20
2019-01-21T15:26:15.528Z,1.10
2019-01-21T15:29:16.321Z,1.10
2019-01-21T15:32:17.287Z,1.00
2019-01-21T15:35:20.648Z,1.00
2019-01-21T15:38:20.912Z,1.00
2019-01-21T15:41:21.788Z,1.00
2019-01-21T15:44:22.362Z,0.90
2019-01-21T15:50:07.069Z,0.90
2019-01-21T15:55:46.963Z,0.80
2019-01-21T15:58:47.503Z,0.80
2019-01-21T16:01:48.510Z,0.80
2019-01-21T16:04:49.696Z,0.70
2019-01-21T16:07:50.326Z,0.70
2019-01-21T16:10:51.071Z,0.70
2019-01-21T16:16:30.861Z,0.60
2019-01-21T16:22:15.494Z,0.40
2019-01-21T16:27:55.140Z,0.40
2019-01-21T16:33:40.110Z,0.30
2019-01-21T16:36:41.386Z,0.30
2019-01-21T16:39:41.898Z,0.30
2019-01-21T16:42:41.866Z,0.20
2019-01-21T16:48:26.610Z,0.30
2019-01-21T16:51:27.879Z,0.30
2019-01-21T16:54:28.542Z,0.20
2019-01-21T16:57:29.637Z,0.20
2019-01-21T17:00:30.326Z,0.10
2019-01-21T17:03:31.375Z,0.10
2019-01-21T17:09:16.325Z,0.10
2019-01-21T17:15:01.317Z,0.00
2019-01-21T17:18:02.602Z,0.00
2019-01-21T17:21:03.306Z,-0.10
2019-01-21T17:24:04.480Z,-0.10
2019-01-21T17:29:49.241Z,-0.10
2019-01-21T17:35:34.110Z,-0.10
2019-01-21T17:38:35.277Z,-0.10
2019-01-21T17:44:20.138Z,-0.10
2019-01-21T17:50:05.378Z,-0.20
2019-01-21T17:53:06.307Z,-0.30
2019-01-21T17:56:06.789Z,-0.20
2019-01-21T17:59:07.269Z,-0.20
2019-01-21T18:04:51.981Z,-0.20
2019-01-21T18:10:36.063Z,-0.20
2019-01-21T18:16:23.751Z,-0.10
2019-01-21T18:19:24.442Z,-0.10
2019-01-21T18:25:09.177Z,0.00
2019-01-21T18:30:54.019Z,0.00
2019-01-21T18:36:38.837Z,0.00
2019-01-21T18:39:39.306Z,0.00
2019-01-21T18:42:40.598Z,0.00
2019-01-21T18:45:40.606Z,0.00
2019-01-21T18:51:25.245Z,0.10
2019-01-21T18:57:09.873Z,0.00
2019-01-21T19:00:11.066Z,0.10
2019-01-21T19:05:54.638Z,0.10
2019-01-21T19:11:39.774Z,0.10
2019-01-21T19:17:23.659Z,0.10
2019-01-21T19:20:23.957Z,0.20
2019-01-21T19:23:25.293Z,0.20
2019-01-21T19:26:26.084Z,0.20
2019-01-21T19:29:26.461Z,0.20
2019-01-21T19:32:27.051Z,0.20
2019-01-21T19:35:28.274Z,0.20
2019-01-21T19:41:13.046Z,0.30
2019-01-21T19:46:57.777Z,0.30
2019-01-21T19:52:41.886Z,0.30
2019-01-21T19:55:42.942Z,0.30
2019-01-21T20:01:47.062Z,0.30
2019-01-21T20:07:31.749Z,0.40
2019-01-21T20:10:32.806Z,0.40
2019-01-21T20:13:33.477Z,0.40
2019-01-21T20:16:34.588Z,0.40
2019-01-21T20:22:19.511Z,0.40
2019-01-21T20:28:58.566Z,0.40
2019-01-21T20:35:06.109Z,0.40
2019-01-21T20:38:07.045Z,0.40
2019-01-21T20:43:51.732Z,0.40
2019-01-21T20:46:52.438Z,0.40
2019-01-21T20:52:37.082Z,0.50
2019-01-21T20:58:21.745Z,0.40
2019-01-21T21:04:06.022Z,0.40
2019-01-21T21:07:07.181Z,0.50
2019-01-21T21:12:52.097Z,0.50
2019-01-21T21:18:32.336Z,0.50
2019-01-21T21:24:17.158Z,0.50
2019-01-21T21:27:18.139Z,0.50
2019-01-21T21:33:03.105Z,0.50
2019-01-21T21:38:47.961Z,0.50
2019-01-21T21:44:33.110Z,0.60
2019-01-21T21:47:33.636Z,0.60
2019-01-21T21:54:47.920Z,0.50
2019-01-21T21:57:48.742Z,0.50
2019-01-21T22:03:33.666Z,0.60
2019-01-21T22:17:53.465Z,0.60
2019-01-21T22:20:54.421Z,0.70
2019-01-21T22:23:53.883Z,0.70
2019-01-21T22:29:39.641Z,0.70
2019-01-21T22:41:46.254Z,0.80
2019-01-21T22:44:47.585Z,0.80
2019-01-21T22:50:32.182Z,0.80
2019-01-21T22:59:22.959Z,0.80
2019-01-21T23:05:07.749Z,0.80
2019-01-21T23:11:46.655Z,0.80
2019-01-21T23:17:58.435Z,0.80
2019-01-21T23:21:00.442Z,0.80
2019-01-21T23:26:46.808Z,0.80
2019-01-21T23:29:48.358Z,0.80
2019-01-21T23:35:35.097Z,0.80
2019-01-21T23:41:21.170Z,0.80
2019-01-21T23:47:06.986Z,0.80
2019-01-21T23:50:08.290Z,0.90
2019-01-21T23:59:00.086Z,0.90
